Time;durP1;ratioP1;P1;durP2;ratioP2;P2;SDS_P1;SDS_P2;PMS_P1;PMS_P2;Temp;Humidity;BMP_temperature;BMP_pressure;BME280_temperature;BME280_humidity;BME280_pressure;Samples;Min_cycle;Max_cycle;Signal;HPM_P1;HPM_P2
2021/12/25 00:00:45;;;;;;;8.10;3.88;;;17.60;80.10;;;;;;5094874;28;20024;-22
2021/12/25 00:03:11;;;;;;;8.80;3.40;;;17.50;80.10;;;;;;5096174;28;20023;-24
2021/12/25 00:05:37;;;;;;;6.10;3.15;;;17.50;80.10;;;;;;5077813;28;20043;-23
2021/12/25 00:08:03;;;;;;;5.97;3.00;;;17.40;80.00;;;;;;5104259;28;20048;-23
2021/12/25 00:10:30;;;;;;;7.25;3.60;;;17.40;80.00;;;;;;5093209;28;20027;-25
2021/12/25 00:12:57;;;;;;;6.57;3.28;;;17.40;80.00;;;;;;5096496;28;20140;-23
2021/12/25 00:15:23;;;;;;;7.45;3.38;;;17.30;80.00;;;;;;5072248;28;20053;-25
2021/12/25 00:17:48;;;;;;;7.78;3.53;;;17.30;80.10;;;;;;5104074;28;20071;-24
2021/12/25 00:20:14;;;;;;;8.20;3.85;;;17.30;80.10;;;;;;5092267;28;20023;-24
2021/12/25 00:22:40;;;;;;;8.00;3.38;;;17.30;80.20;;;;;;5104681;28;20024;-24
2021/12/25 00:25:06;;;;;;;5.53;2.92;;;17.20;80.10;;;;;;5092289;28;20032;-25
2021/12/25 00:31:04;;;;;;;6.60;3.05;;;17.20;80.10;;;;;;5072637;28;20879;-27
2021/12/25 00:33:19;;;;;;;5.57;3.25;;;17.20;80.00;;;;;;5101469;28;20366;-24
2021/12/25 00:35:46;;;;;;;7.20;3.72;;;17.20;80.10;;;;;;5092649;28;20024;-31
2021/12/25 00:38:11;;;;;;;5.65;2.90;;;17.20;80.10;;;;;;5104041;28;20096;-24
2021/12/25 00:40:37;;;;;;;7.55;2.78;;;17.20;80.00;;;;;;5091767;28;20016;-23
2021/12/25 00:43:02;;;;;;;7.32;2.78;;;17.20;80.00;;;;;;5085540;28;20029;-25
2021/12/25 00:45:28;;;;;;;6.78;3.00;;;17.10;79.90;;;;;;5107115;28;20015;-23
2021/12/25 00:47:54;;;;;;;5.88;3.10;;;17.10;79.90;;;;;;5103448;28;20115;-24
2021/12/25 00:50:19;;;;;;;6.93;2.88;;;17.10;79.90;;;;;;5106659;28;20419;-23
2021/12/25 00:52:45;;;;;;;7.03;3.13;;;17.10;79.80;;;;;;5107106;28;20058;-23
2021/12/25 00:55:11;;;;;;;6.95;3.03;;;17.10;79.80;;;;;;5091525;28;20079;-23
2021/12/25 00:57:37;;;;;;;4.55;2.42;;;17.10;79.80;;;;;;5093304;28;20071;-24
2021/12/25 01:00:09;;;;;;;6.25;2.50;;;17.10;79.80;;;;;;5101805;28;20389;-23
2021/12/25 01:02:37;;;;;;;7.13;3.17;;;17.10;80.30;;;;;;5082659;28;20025;-24
2021/12/25 01:05:04;;;;;;;6.40;2.97;;;17.10;79.70;;;;;;5102429;28;20474;-23
2021/12/25 01:07:29;;;;;;;6.47;3.10;;;17.10;79.60;;;;;;5092337;28;20028;-24
2021/12/25 01:09:55;;;;;;;5.38;2.65;;;17.10;79.50;;;;;;5102195;28;20105;-24
2021/12/25 01:12:21;;;;;;;5.65;2.80;;;17.10;79.60;;;;;;5091538;28;20028;-23
2021/12/25 01:14:53;;;;;;;5.10;2.63;;;17.10;79.40;;;;;;5098436;28;20038;-26
2021/12/25 01:30:25;;;;;;;4.80;2.55;;;17.00;79.10;;;;;;5102504;28;20107;-24
2021/12/25 01:38:05;;;;;;;5.10;2.47;;;17.00;78.90;;;;;;5110670;28;20700;-24
2021/12/25 01:48:51;;;;;;;5.30;2.53;;;16.90;79.00;;;;;;5068858;28;20051;-23
2021/12/25 01:51:17;;;;;;;5.90;2.90;;;16.90;78.70;;;;;;5091864;28;20039;-25
2021/12/25 01:53:42;;;;;;;4.68;2.47;;;16.90;78.70;;;;;;5090489;28;20046;-25
2021/12/25 01:56:08;;;;;;;5.55;3.15;;;16.90;78.80;;;;;;5098397;28;20157;-22
2021/12/25 01:58:34;;;;;;;5.22;2.50;;;16.90;78.80;;;;;;5095311;28;20044;-23
2021/12/25 02:01:01;;;;;;;4.88;2.38;;;16.90;78.70;;;;;;5102987;28;20053;-23
2021/12/25 02:03:30;;;;;;;4.03;1.98;;;16.90;78.60;;;;;;5090226;28;20024;-24
2021/12/25 02:05:57;;;;;;;5.40;2.60;;;16.90;78.60;;;;;;5101020;28;20027;-23
2021/12/25 02:08:24;;;;;;;4.20;2.08;;;16.90;78.70;;;;;;5091732;28;20168;-24
2021/12/25 02:10:49;;;;;;;4.93;2.30;;;16.80;78.70;;;;;;5099009;28;20024;-23
2021/12/25 02:13:16;;;;;;;5.22;2.40;;;16.80;78.50;;;;;;5093832;28;20370;-22
2021/12/25 02:15:47;;;;;;;5.07;2.53;;;16.80;78.40;;;;;;5093603;28;20374;-22
2021/12/25 02:18:19;;;;;;;4.13;2.22;;;16.80;78.40;;;;;;5079613;28;20036;-22
2021/12/25 02:20:54;;;;;;;4.75;2.58;;;16.80;78.40;;;;;;5078284;28;20084;-22
2021/12/25 02:23:22;;;;;;;4.80;2.20;;;16.80;78.50;;;;;;5102147;28;20024;-23
2021/12/25 02:25:50;;;;;;;4.90;2.50;;;16.80;78.40;;;;;;5083916;28;20028;-24
2021/12/25 02:28:17;;;;;;;4.57;2.40;;;16.80;78.30;;;;;;5096763;28;20032;-23
2021/12/25 02:30:46;;;;;;;5.47;3.08;;;16.80;78.20;;;;;;5090709;28;20016;-24
2021/12/25 02:33:12;;;;;;;5.35;2.60;;;16.80;78.20;;;;;;5098784;28;20077;-23
2021/12/25 02:35:38;;;;;;;4.57;2.65;;;16.70;78.30;;;;;;5090418;28;20110;-22
2021/12/25 02:38:05;;;;;;;3.53;2.00;;;16.70;78.10;;;;;;5099972;28;20032;-23
2021/12/25 02:40:31;;;;;;;5.60;2.45;;;16.70;78.30;;;;;;5088411;28;20023;-24
2021/12/25 02:42:57;;;;;;;6.32;2.95;;;16.70;78.10;;;;;;5100566;28;20024;-24
2021/12/25 02:45:23;;;;;;;3.92;2.20;;;16.70;78.10;;;;;;5089741;28;20115;-23
2021/12/25 02:47:52;;;;;;;3.53;2.25;;;16.70;78.30;;;;;;5102198;28;20024;-25
2021/12/25 02:50:29;;;;;;;4.03;2.38;;;16.70;78.00;;;;;;5089569;28;20069;-23
2021/12/25 02:52:58;;;;;;;4.60;2.75;;;16.70;78.00;;;;;;5095126;28;20032;-22
2021/12/25 02:55:24;;;;;;;3.58;2.15;;;16.70;78.10;;;;;;5093913;28;20394;-22
2021/12/25 02:57:51;;;;;;;4.60;2.03;;;16.60;78.20;;;;;;5099966;28;20043;-23
2021/12/25 03:00:31;;;;;;;4.22;2.53;;;16.60;77.90;;;;;;5085116;28;20020;-23
2021/12/25 03:02:57;;;;;;;4.55;2.50;;;16.60;78.00;;;;;;5092683;28;20028;-25
2021/12/25 03:05:24;;;;;;;5.28;2.50;;;16.60;77.90;;;;;;5108845;28;20019;-27
2021/12/25 03:07:50;;;;;;;4.55;2.78;;;16.60;77.90;;;;;;5107588;28;20080;-23
2021/12/25 03:10:17;;;;;;;3.97;2.75;;;16.60;78.10;;;;;;5075528;28;20033;-24
2021/12/25 03:13:04;;;;;;;4.97;2.88;;;16.60;78.10;;;;;;5087122;28;20051;-23
2021/12/25 03:15:45;;;;;;;4.90;2.38;;;16.60;77.90;;;;;;5109232;28;20031;-24
2021/12/25 03:18:11;;;;;;;;;;;16.60;78.40;;;;;;5104229;28;20063;-24
2021/12/25 03:20:40;;;;;;;5.35;3.20;;;16.60;77.90;;;;;;5089924;28;19908;-23
2021/12/25 03:23:06;;;;;;;6.05;3.38;;;16.50;77.90;;;;;;5095789;28;20119;-23
2021/12/25 03:25:31;;;;;;;5.57;2.78;;;16.50;77.90;;;;;;5092907;28;20024;-23
2021/12/25 03:27:58;;;;;;;4.53;2.50;;;16.60;77.90;;;;;;5092976;28;20023;-23
2021/12/25 03:30:24;;;;;;;4.88;2.80;;;16.50;77.80;;;;;;5104828;28;20095;-23
2021/12/25 03:32:50;;;;;;;5.30;2.63;;;16.50;77.90;;;;;;5094553;28;20446;-27
2021/12/25 03:35:16;;;;;;;5.90;2.88;;;16.50;77.70;;;;;;5101809;28;20069;-24
2021/12/25 03:37:41;;;;;;;4.88;2.67;;;16.60;77.80;;;;;;5091938;28;20051;-23
2021/12/25 03:40:08;;;;;;;5.15;2.70;;;16.50;77.80;;;;;;5103414;28;20560;-22
2021/12/25 03:42:33;;;;;;;4.53;2.63;;;16.50;77.80;;;;;;5093104;28;20560;-25
2021/12/25 03:44:59;;;;;;;4.65;2.75;;;16.60;77.90;;;;;;5103252;28;20132;-22
2021/12/25 03:47:30;;;;;;;4.60;2.40;;;16.60;77.70;;;;;;5091838;28;20062;-23
2021/12/25 03:58:12;;;;;;;6.22;3.30;;;16.60;77.50;;;;;;5092520;28;20160;-23
2021/12/25 04:00:38;;;;;;;5.20;3.20;;;16.60;77.60;;;;;;5094527;28;20102;-25
2021/12/25 04:03:09;;;;;;;4.63;2.85;;;16.60;77.40;;;;;;5091690;28;20462;-27
2021/12/25 04:05:38;;;;;;;5.57;3.00;;;16.60;77.30;;;;;;5097064;28;20098;-23
2021/12/25 04:10:35;;;;;;;5.88;3.00;;;16.60;77.30;;;;;;5098196;28;20032;-24
2021/12/25 04:13:03;;;;;;;5.43;2.78;;;16.60;77.40;;;;;;5111554;28;20023;-26
2021/12/25 04:15:28;;;;;;;5.07;3.03;;;16.60;77.30;;;;;;5097104;28;20073;-26
2021/12/25 04:17:54;;;;;;;5.28;2.90;;;16.60;77.20;;;;;;5091277;28;20036;-27
2021/12/25 04:20:20;;;;;;;5.22;3.05;;;16.60;77.10;;;;;;5092326;28;20359;-25
2021/12/25 04:22:56;;;;;;;4.60;2.38;;;16.60;77.20;;;;;;5109534;28;20051;-25
2021/12/25 04:25:27;;;;;;;5.38;2.78;;;16.60;77.20;;;;;;5107579;28;20473;-24
2021/12/25 04:27:54;;;;;;;4.75;2.38;;;16.60;77.10;;;;;;5092579;28;20028;-24
2021/12/25 04:30:59;;;;;;;5.35;2.50;;;16.60;77.00;;;;;;5090386;28;20027;-24
2021/12/25 05:05:30;;;;;;;4.18;2.50;;;16.60;76.30;;;;;;5109267;28;20125;-24
2021/12/25 05:07:55;;;;;;;2.95;1.95;;;16.70;76.20;;;;;;5098853;28;20111;-23
2021/12/25 05:10:21;;;;;;;3.58;2.10;;;16.70;76.10;;;;;;5109611;28;20118;-23
2021/12/25 05:12:46;;;;;;;5.25;2.28;;;16.70;76.20;;;;;;5097317;28;20024;-24
2021/12/25 05:15:12;;;;;;;3.95;2.00;;;16.70;76.20;;;;;;5110702;28;20034;-24
2021/12/25 05:17:37;;;;;;;4.28;2.33;;;16.70;76.00;;;;;;5103465;28;20038;-25
2021/12/25 05:20:04;;;;;;;4.38;2.33;;;16.70;76.00;;;;;;5088584;28;20024;-24
2021/12/25 05:22:30;;;;;;;2.88;1.67;;;16.70;75.90;;;;;;5093360;28;20020;-22
2021/12/25 05:24:55;;;;;;;4.88;2.10;;;16.70;75.90;;;;;;5109027;28;20032;-23
2021/12/25 05:27:21;;;;;;;7.15;2.08;;;16.70;75.90;;;;;;5097108;28;20046;-23
2021/12/25 05:29:47;;;;;;;5.53;2.03;;;16.70;75.90;;;;;;5087694;28;20051;-24
2021/12/25 05:32:14;;;;;;;4.28;1.67;;;16.60;74.60;;;;;;5090699;28;20023;-22
2021/12/25 05:34:40;;;;;;;5.88;1.90;;;16.60;75.20;;;;;;5103653;28;20030;-22
2021/12/25 05:37:05;;;;;;;7.22;2.35;;;16.60;75.50;;;;;;5089088;28;20036;-22
2021/12/25 05:39:31;;;;;;;11.57;2.53;;;16.60;75.60;;;;;;5099109;28;20024;-22
2021/12/25 05:41:58;;;;;;;6.93;2.10;;;16.60;75.60;;;;;;5094103;28;20028;-23
2021/12/25 05:44:24;;;;;;;5.30;2.10;;;16.60;75.50;;;;;;5098057;28;20431;-24
2021/12/25 05:46:50;;;;;;;5.70;1.67;;;16.60;74.90;;;;;;5080498;28;20032;-24
2021/12/25 05:49:15;;;;;;;3.55;1.77;;;16.50;75.10;;;;;;5103651;28;20020;-24
2021/12/25 05:51:41;;;;;;;3.85;1.95;;;16.50;75.10;;;;;;5080901;28;20070;-24
2021/12/25 05:54:06;;;;;;;5.00;1.75;;;16.50;75.20;;;;;;5101343;28;20055;-26
2021/12/25 05:56:32;;;;;;;6.65;1.92;;;16.50;75.20;;;;;;5090485;28;20040;-25
2021/12/25 05:58:58;;;;;;;5.20;1.60;;;16.50;74.90;;;;;;5102654;28;20047;-25
2021/12/25 06:01:23;;;;;;;3.10;1.52;;;16.50;74.90;;;;;;5090763;28;20053;-24
2021/12/25 06:03:49;;;;;;;4.40;1.60;;;16.50;75.40;;;;;;5101071;28;20343;-24
2021/12/25 06:06:15;;;;;;;4.28;1.70;;;16.50;74.60;;;;;;5091864;28;20027;-24
2021/12/25 06:08:40;;;;;;;3.92;1.80;;;16.50;74.60;;;;;;5095994;28;20036;-24
2021/12/25 06:11:06;;;;;;;5.22;1.73;;;16.50;74.50;;;;;;5094223;28;20032;-23
2021/12/25 06:13:32;;;;;;;3.97;1.58;;;16.50;74.30;;;;;;5095658;28;20027;-25
2021/12/25 06:15:58;;;;;;;3.88;1.30;;;16.50;74.30;;;;;;5097012;28;20390;-24
2021/12/25 06:18:23;;;;;;;5.53;1.95;;;16.50;74.00;;;;;;5093524;28;20035;-25
2021/12/25 06:20:49;;;;;;;3.70;1.50;;;16.50;74.00;;;;;;5093684;28;20015;-23
2021/12/25 06:23:14;;;;;;;5.13;1.70;;;16.50;74.00;;;;;;5104061;28;20397;-24
2021/12/25 06:25:40;;;;;;;5.45;1.83;;;16.50;74.10;;;;;;5080635;28;20394;-24
2021/12/25 06:28:07;;;;;;;7.90;1.73;;;16.40;73.20;;;;;;5080755;28;20028;-24
2021/12/25 06:30:33;;;;;;;6.57;1.45;;;16.40;73.40;;;;;;5080820;28;20027;-25
2021/12/25 06:32:58;;;;;;;3.78;1.40;;;16.40;73.50;;;;;;5077589;28;20025;-28
2021/12/25 06:35:24;;;;;;;6.20;1.58;;;16.40;73.10;;;;;;5085521;28;20036;-24
2021/12/25 06:37:50;;;;;;;6.25;1.45;;;16.50;73.20;;;;;;5076950;28;20489;-22
2021/12/25 06:40:19;;;;;;;3.50;1.58;;;16.60;73.30;;;;;;5080558;28;20020;-24
2021/12/25 06:42:48;;;;;;;4.93;1.13;;;16.80;72.90;;;;;;5080487;28;20463;-23
2021/12/25 06:45:14;;;;;;;6.65;1.70;;;16.90;72.70;;;;;;5083031;28;20020;-23
2021/12/25 06:47:39;;;;;;;3.30;1.27;;;17.10;72.70;;;;;;5077718;28;20105;-23
2021/12/25 06:50:09;;;;;;;7.10;1.70;;;17.20;71.70;;;;;;5085444;28;20112;-24
2021/12/25 06:52:36;;;;;;;5.32;1.02;;;17.30;71.40;;;;;;5077999;28;20012;-26
2021/12/25 06:55:04;;;;;;;3.58;0.82;;;17.50;70.80;;;;;;5082087;28;20028;-23
2021/12/25 06:57:29;;;;;;;3.80;1.23;;;17.60;70.80;;;;;;5078415;28;20020;-25
2021/12/25 06:59:55;;;;;;;4.70;1.05;;;17.60;70.40;;;;;;5085142;28;20722;-23
2021/12/25 07:02:21;;;;;;;10.93;1.67;;;17.70;70.50;;;;;;5078976;28;20012;-24
2021/12/25 07:04:47;;;;;;;8.18;1.45;;;17.70;70.50;;;;;;5080049;28;20031;-24
2021/12/25 07:07:12;;;;;;;4.82;1.20;;;17.80;70.30;;;;;;5077858;28;20047;-23
2021/12/25 07:09:38;;;;;;;6.70;1.60;;;17.80;70.00;;;;;;5079737;28;20437;-23
2021/12/25 07:12:04;;;;;;;5.70;1.08;;;17.90;70.10;;;;;;5082242;28;20030;-22
2021/12/25 07:14:29;;;;;;;5.70;1.40;;;17.90;70.80;;;;;;5078587;28;20023;-23
2021/12/25 07:16:55;;;;;;;3.80;1.40;;;17.90;70.20;;;;;;5082618;28;20044;-25
2021/12/25 07:19:20;;;;;;;6.85;1.55;;;17.90;70.00;;;;;;5077108;28;20464;-23
2021/12/25 07:21:46;;;;;;;5.18;0.90;;;17.90;69.90;;;;;;5084794;28;20465;-24
2021/12/25 07:24:13;;;;;;;5.57;1.00;;;18.00;69.90;;;;;;5077440;28;20025;-24
2021/12/25 07:26:39;;;;;;;6.30;1.13;;;18.00;69.80;;;;;;5075362;28;20028;-23
2021/12/25 07:29:05;;;;;;;3.78;1.42;;;18.00;69.90;;;;;;5077120;28;20028;-23
2021/12/25 07:31:31;;;;;;;7.40;1.38;;;18.00;69.80;;;;;;5078507;28;20036;-24
2021/12/25 07:33:56;;;;;;;2.85;1.00;;;18.00;69.80;;;;;;5078118;28;20434;-27
2021/12/25 07:36:23;;;;;;;5.70;0.90;;;18.00;69.60;;;;;;5076206;28;20051;-23
2021/12/25 07:38:49;;;;;;;5.10;0.88;;;18.10;69.70;;;;;;5081509;28;20028;-23
2021/12/25 07:41:14;;;;;;;4.25;0.70;;;18.00;69.50;;;;;;5083653;28;20016;-22
2021/12/25 07:43:40;;;;;;;3.28;0.90;;;18.10;69.60;;;;;;5079083;28;20047;-23
2021/12/25 07:46:06;;;;;;;3.08;0.77;;;18.10;69.40;;;;;;5082083;28;20026;-23
2021/12/25 07:48:33;;;;;;;4.45;0.75;;;18.10;69.40;;;;;;5087925;28;20020;-23
2021/12/25 07:51:02;;;;;;;2.60;0.85;;;18.20;69.30;;;;;;5078686;28;20024;-24
2021/12/25 07:53:29;;;;;;;2.03;0.70;;;18.20;69.30;;;;;;5083252;28;20023;-25
2021/12/25 07:55:54;;;;;;;4.03;1.13;;;18.20;69.20;;;;;;5077405;28;20441;-26
2021/12/25 07:58:20;;;;;;;2.20;0.70;;;18.20;69.20;;;;;;5081982;28;20058;-24
2021/12/25 08:00:46;;;;;;;2.45;1.00;;;18.20;69.10;;;;;;5077577;28;20029;-24
2021/12/25 08:03:12;;;;;;;3.47;1.00;;;18.30;69.10;;;;;;5088535;28;20024;-23
2021/12/25 08:05:38;;;;;;;3.30;0.60;;;18.30;69.30;;;;;;5107724;28;20024;-22
2021/12/25 08:08:04;;;;;;;3.33;0.80;;;18.30;69.00;;;;;;5095761;28;20012;-23
2021/12/25 08:10:31;;;;;;;2.55;0.80;;;18.30;69.00;;;;;;5107371;28;20024;-23
2021/12/25 08:12:58;;;;;;;3.88;1.17;;;18.40;69.10;;;;;;5097770;28;20142;-26
2021/12/25 08:15:26;;;;;;;1.48;0.50;;;18.40;69.10;;;;;;5104160;28;20019;-26
2021/12/25 08:17:54;;;;;;;4.32;0.75;;;18.40;69.00;;;;;;5108510;28;20458;-26
2021/12/25 08:20:19;;;;;;;2.28;0.80;;;18.40;68.90;;;;;;5087977;28;20449;-28
2021/12/25 08:22:46;;;;;;;2.05;0.63;;;18.40;69.20;;;;;;5076325;28;20277;-28
2021/12/25 08:25:13;;;;;;;2.67;0.98;;;18.40;69.00;;;;;;5076514;28;20035;-24
2021/12/25 08:27:40;;;;;;;1.02;0.80;;;18.50;69.20;;;;;;5077898;28;20032;-25
2021/12/25 08:30:10;;;;;;;2.70;0.73;;;18.50;69.20;;;;;;5082545;28;20106;-25
2021/12/25 08:32:37;;;;;;;4.05;0.60;;;18.50;69.30;;;;;;5084471;28;20111;-26
2021/12/25 08:35:04;;;;;;;2.05;0.95;;;;;;;;;;5086434;28;20091;-24
2021/12/25 08:37:31;;;;;;;0.80;0.50;;;;;;;;;;5082391;28;20024;-25
2021/12/25 08:39:57;;;;;;;3.00;0.60;;;18.60;69.30;;;;;;5089105;28;20031;-25
2021/12/25 08:42:23;;;;;;;1.92;0.57;;;18.60;69.90;;;;;;5111325;28;20055;-26
2021/12/25 08:45:04;;;;;;;4.00;0.70;;;18.60;69.90;;;;;;5090086;28;20362;-24
2021/12/25 08:47:36;;;;;;;11.65;1.90;;;18.70;69.90;;;;;;5111227;28;20090;-24
2021/12/25 08:50:08;;;;;;;7.13;1.73;;;18.70;70.00;;;;;;5104933;28;20070;-24
2021/12/25 08:52:34;;;;;;;4.82;1.50;;;;;;;;;;5089931;28;20031;-28
2021/12/25 08:55:00;;;;;;;6.10;1.95;;;18.80;69.70;;;;;;5093988;28;20051;-27
2021/12/25 08:57:26;;;;;;;9.80;2.65;;;;;;;;;;5074469;28;20072;-26
2021/12/25 08:59:54;;;;;;;6.28;2.40;;;19.00;70.10;;;;;;5095704;28;20032;-26
2021/12/25 09:02:21;;;;;;;8.10;2.67;;;19.10;70.90;;;;;;5089933;28;20120;-24
2021/12/25 09:04:50;;;;;;;6.53;2.33;;;19.20;70.80;;;;;;5087367;28;20031;-28
2021/12/25 09:07:16;;;;;;;7.70;2.40;;;19.10;70.90;;;;;;5080860;28;20142;-25
2021/12/25 09:09:42;;;;;;;6.55;2.72;;;19.10;71.20;;;;;;5083440;28;20016;-28
2021/12/25 09:12:11;;;;;;;4.75;2.35;;;19.10;71.40;;;;;;5082597;28;20035;-22
2021/12/25 09:14:37;;;;;;;13.20;2.83;;;19.00;71.60;;;;;;5087893;28;20035;-26
2021/12/25 09:17:03;;;;;;;6.32;2.75;;;19.00;71.80;;;;;;5082099;28;20695;-22
2021/12/25 09:19:29;;;;;;;6.45;2.55;;;18.90;72.20;;;;;;5083968;28;20525;-23
2021/12/25 09:21:55;;;;;;;6.55;2.47;;;18.80;73.10;;;;;;5076344;28;20032;-26
2021/12/25 09:24:21;;;;;;;6.20;2.70;;;18.90;73.10;;;;;;5075696;28;20023;-22
2021/12/25 09:26:48;;;;;;;7.35;2.67;;;18.90;72.90;;;;;;5086790;28;20108;-24
2021/12/25 09:29:13;;;;;;;7.57;3.13;;;18.80;72.40;;;;;;5080655;28;20138;-24
2021/12/25 09:31:39;;;;;;;6.47;2.72;;;18.80;72.90;;;;;;5096891;28;20041;-23
2021/12/25 09:34:05;;;;;;;8.02;2.53;;;18.80;72.80;;;;;;5109434;27;20031;-23
2021/12/25 09:36:31;;;;;;;9.60;3.28;;;18.70;72.80;;;;;;5096372;28;20016;-22
2021/12/25 09:38:57;;;;;;;10.32;2.78;;;18.70;72.80;;;;;;5109869;28;20114;-22
2021/12/25 09:41:22;;;;;;;8.15;2.72;;;18.60;72.90;;;;;;5103227;28;20242;-24
2021/12/25 09:43:49;;;;;;;7.28;2.65;;;18.60;72.80;;;;;;5089017;28;20466;-26
2021/12/25 09:46:20;;;;;;;9.02;2.65;;;18.50;73.40;;;;;;5099496;28;20031;-23
2021/12/25 09:48:47;;;;;;;6.63;2.60;;;18.50;73.80;;;;;;5090372;28;20059;-23
2021/12/25 09:51:13;;;;;;;25.13;10.98;;;18.50;74.00;;;;;;5098393;28;20023;-24
2021/12/25 09:53:39;;;;;;;57.72;29.52;;;18.50;73.80;;;;;;5091988;28;20050;-23
2021/12/25 09:56:05;;;;;;;59.67;27.90;;;18.50;73.70;;;;;;5092001;28;20040;-24
2021/12/25 09:58:31;;;;;;;53.78;24.80;;;18.50;73.60;;;;;;5103735;28;20077;-28
2021/12/25 10:00:58;;;;;;;47.33;22.88;;;;;;;;;;5106602;28;20024;-24
2021/12/25 10:03:25;;;;;;;45.38;21.77;;;;;;;;;;5095643;28;20020;-30
2021/12/25 10:05:52;;;;;;;37.30;19.02;;;;;;;;;;5086214;28;20465;-28
2021/12/25 10:08:19;;;;;;;36.30;19.17;;;;;;;;;;5092330;28;20038;-25
2021/12/25 10:10:47;;;;;;;44.75;18.00;;;;;;;;;;5080806;28;20461;-25
2021/12/25 10:13:19;;;;;;;31.80;15.65;;;;;;;;;;5094788;28;20031;-24
2021/12/25 10:15:45;;;;;;;30.38;15.27;;;;;;;;;;5106156;28;20020;-25
2021/12/25 10:18:11;;;;;;;36.60;16.17;;;;;;;;;;5100297;28;20081;-25
2021/12/25 10:20:37;;;;;;;32.60;14.80;;;;;;;;;;5087823;28;20686;-26
2021/12/25 10:23:10;;;;;;;31.70;14.90;;;;;;;;;;5097748;28;20120;-24
2021/12/25 10:25:43;;;;;;;34.78;15.13;;;;;;;;;;5087600;28;20517;-27
2021/12/25 10:28:09;;;;;;;26.25;13.02;;;;;;;;;;5100045;28;20388;-23
2021/12/25 10:30:47;;;;;;;25.70;12.18;;;;;;;;;;5088005;28;20462;-24
2021/12/25 10:33:27;;;;;;;25.90;11.93;;;;;;;;;;5099916;28;20028;-24
2021/12/25 10:35:53;;;;;;;29.55;12.00;;;;;;;;;;5086288;28;20115;-26
2021/12/25 10:38:22;;;;;;;24.77;11.57;;;;;;;;;;5087214;28;20400;-26
2021/12/25 10:40:48;;;;;;;28.08;10.48;;;;;;;;;;5107918;28;20042;-32
2021/12/25 10:43:21;;;;;;;23.08;10.13;;;;;;;;;;5096657;28;20020;-30
2021/12/25 10:46:03;;;;;;;23.85;10.02;;;;;;;;;;5108752;28;20035;-25
2021/12/25 10:48:30;;;;;;;19.92;9.27;;;;;;;;;;5096610;28;20073;-24
2021/12/25 10:50:57;;;;;;;23.70;10.00;;;;;;;;;;5104051;28;20450;-25
2021/12/25 10:53:40;;;;;;;25.67;10.75;;;;;;;;;;5099477;28;20122;-32
2021/12/25 10:56:08;;;;;;;27.15;9.98;;;;;;;;;;5089052;28;20119;-27
2021/12/25 10:58:35;;;;;;;26.38;9.23;;;;;;;;;;5099353;28;20044;-24
2021/12/25 11:01:02;;;;;;;40.88;9.80;;;;;;;;;;5088005;28;20036;-22
2021/12/25 11:03:29;;;;;;;17.67;6.97;;;;;;;;;;5090421;28;20020;-24
2021/12/25 11:06:00;;;;;;;21.23;8.75;;;;;;;;;;5081198;28;20032;-27
2021/12/25 11:08:26;;;;;;;21.08;8.75;;;;;;;;;;5084113;28;20432;-24
2021/12/25 11:10:54;;;;;;;22.63;7.70;;;;;;;;;;5095340;28;20036;-24
2021/12/25 11:13:40;;;;;;;17.65;7.50;;;;;;;;;;5090393;28;20051;-29
2021/12/25 11:16:14;;;;;;;15.35;6.82;;;;;;;;;;5072153;28;20431;-29
2021/12/25 11:18:52;;;;;;;15.75;6.18;;;;;;;;;;5085309;28;20098;-24
2021/12/25 11:21:18;;;;;;;18.65;5.43;;;;;;;;;;5079930;28;20461;-26
2021/12/25 11:23:46;;;;;;;20.92;6.10;;;;;;;;;;5087076;28;20024;-28
2021/12/25 11:26:12;;;;;;;13.90;6.43;;;;;;;;;;5099231;28;20051;-23
2021/12/25 11:28:38;;;;;;;18.48;6.38;;;;;;;;;;5086760;28;20023;-21
2021/12/25 11:31:04;;;;;;;15.20;4.63;;;;;;;;;;5089679;28;20031;-21
2021/12/25 11:33:31;;;;;;;15.05;5.22;;;;;;;;;;5083199;28;20120;-21
2021/12/25 11:35:56;;;;;;;16.67;6.25;;;;;;;;;;5099312;28;20101;-21
2021/12/25 11:38:23;;;;;;;18.33;6.85;;;;;;;;;;5087976;28;20435;-20
2021/12/25 11:40:53;;;;;;;20.30;5.78;;;;;;;;;;5099784;28;20052;-21
2021/12/25 11:43:40;;;;;;;15.43;5.20;;;;;;;;;;5087710;28;20024;-21
2021/12/25 11:46:07;;;;;;;12.43;4.18;;;;;;;;;;5098579;28;20062;-22
2021/12/25 11:48:34;;;;;;;22.08;5.97;;;;;;;;;;5087190;28;20043;-21
2021/12/25 11:51:00;;;;;;;18.17;5.18;;;;;;;;;;5102490;28;20016;-21
2021/12/25 11:54:30;;;;;;;21.35;5.07;;;;;;;;;;5091782;28;20032;-22
2021/12/25 11:56:36;;;;;;;12.35;4.45;;;;;;;;;;5101879;28;20453;-21
2021/12/25 11:59:10;;;;;;;19.63;5.35;;;;;;;;;;5091606;28;20124;-23
2021/12/25 12:01:39;;;;;;;22.20;6.40;;;;;;;;;;5096447;28;20047;-22
2021/12/25 12:04:11;;;;;;;27.90;15.15;;;;;;;;;;5111548;28;20028;-22
2021/12/25 12:06:51;;;;;;;44.97;24.95;;;;;;;;;;5099533;28;20032;-22
2021/12/25 12:09:25;;;;;;;48.00;31.92;;;;;;;;;;5111812;28;20114;-22
2021/12/25 12:12:11;;;;;;;49.58;36.40;;;;;;;;;;5098530;28;20135;-21
2021/12/25 12:14:38;;;;;;;69.10;41.33;;;;;;;;;;5090797;28;20020;-22
2021/12/25 12:17:08;;;;;;;64.20;46.53;;;;;;;;;;5086949;27;20020;-23
2021/12/25 12:19:36;;;;;;;16.67;12.00;;;;;;;;;;5071056;28;20044;-21
2021/12/25 12:25:18;;;;;;;5.20;1.98;;;;;;;;;;5091179;28;20132;-21
2021/12/25 12:27:48;;;;;;;4.18;1.60;;;;;;;;;;5093985;28;20437;-21
2021/12/25 12:30:34;;;;;;;8.65;2.67;;;;;;;;;;5074948;28;20068;-21
2021/12/25 12:33:01;;;;;;;16.95;10.07;;;;;;;;;;5094409;28;20147;-22
2021/12/25 12:35:30;;;;;;;22.30;16.92;;;;;;;;;;5074887;28;20082;-21
2021/12/25 12:38:24;;;;;;;42.45;29.30;;;16.20;53.90;;;;;;5102614;28;20131;-43
2021/12/25 12:41:11;;;;;;;70.78;40.70;;;16.90;52.10;;;;;;5091856;28;20020;-42
2021/12/25 12:43:51;;;;;;;58.85;38.65;;;18.00;52.00;;;;;;5092612;28;20540;-41
2021/12/25 12:46:16;;;;;;;57.00;43.27;;;18.50;51.70;;;;;;5109642;28;20051;-40
2021/12/25 12:49:07;;;;;;;66.70;48.78;;;18.60;52.00;;;;;;5101181;28;20461;-39
2021/12/25 12:51:34;;;;;;;70.40;51.10;;;18.80;52.70;;;;;;5108709;28;20020;-41
2021/12/25 12:54:00;;;;;;;71.82;55.25;;;18.80;54.00;;;;;;5102555;28;20027;-38
2021/12/25 12:56:26;;;;;;;63.15;53.10;;;18.70;54.10;;;;;;5107246;28;20043;-43
2021/12/25 12:58:54;;;;;;;70.47;51.10;;;18.70;54.70;;;;;;5099069;28;20130;-43
2021/12/25 13:01:21;;;;;;;60.55;48.63;;;18.70;56.10;;;;;;5110032;28;20016;-43
2021/12/25 13:03:47;;;;;;;59.60;44.83;;;18.60;55.40;;;;;;5093581;28;20393;-43
2021/12/25 13:06:15;;;;;;;56.55;41.47;;;18.60;56.70;;;;;;5098198;28;20077;-42
2021/12/25 13:08:43;;;;;;;65.13;40.42;;;18.60;57.20;;;;;;5101638;28;20020;-43
2021/12/25 13:11:19;;;;;;;59.13;37.88;;;18.50;56.60;;;;;;5089431;28;20024;-43
2021/12/25 13:13:53;;;;;;;46.25;34.60;;;18.60;58.80;;;;;;5102606;28;20020;-43
2021/12/25 13:16:23;;;;;;;45.42;33.17;;;18.60;58.50;;;;;;5083501;28;20360;-43
2021/12/25 13:18:54;;;;;;;42.72;31.63;;;18.60;58.60;;;;;;5101044;28;20039;-43
2021/12/25 13:21:23;;;;;;;47.88;32.10;;;18.60;58.30;;;;;;5089921;28;20053;-43
2021/12/25 13:23:54;;;;;;;41.63;29.25;;;18.60;59.50;;;;;;5103047;28;20118;-43
2021/12/25 13:26:26;;;;;;;40.42;29.45;;;18.60;59.90;;;;;;5090786;28;20016;-43
2021/12/25 13:28:52;;;;;;;39.25;27.27;;;18.60;59.80;;;;;;5092241;28;20406;-43
2021/12/25 13:31:20;;;;;;;38.50;26.77;;;18.60;60.00;;;;;;5094495;28;20024;-43
2021/12/25 13:33:51;;;;;;;32.47;25.85;;;18.60;59.70;;;;;;5094579;28;20020;-43
2021/12/25 13:36:22;;;;;;;34.00;26.52;;;18.60;59.60;;;;;;5084886;27;20043;-43
2021/12/25 13:38:53;;;;;;;34.40;25.10;;;18.70;60.40;;;;;;5092312;28;20092;-42
2021/12/25 13:41:29;;;;;;;43.00;25.48;;;18.70;60.50;;;;;;5087854;28;20051;-43
2021/12/25 13:44:15;;;;;;;33.22;24.35;;;18.70;60.20;;;;;;5090131;28;20016;-43
2021/12/25 13:46:53;;;;;;;31.85;22.13;;;18.70;61.90;;;;;;5091623;28;20024;-43
2021/12/25 13:49:25;;;;;;;31.30;22.00;;;18.70;62.80;;;;;;5094660;28;20423;-42
2021/12/25 13:51:52;;;;;;;29.27;20.83;;;18.70;63.10;;;;;;5093552;28;20100;-43
2021/12/25 13:54:18;;;;;;;31.52;21.92;;;18.80;63.10;;;;;;5094398;28;20027;-43
2021/12/25 13:56:46;;;;;;;26.73;20.88;;;18.70;63.60;;;;;;5093504;28;20484;-43
2021/12/25 13:59:11;;;;;;;26.10;19.17;;;18.70;64.80;;;;;;5095302;28;20035;-43
2021/12/25 14:01:37;;;;;;;23.42;18.08;;;18.70;64.40;;;;;;5096609;28;20024;-43
2021/12/25 14:04:08;;;;;;;24.27;17.65;;;18.80;63.90;;;;;;5075573;28;20028;-43
2021/12/25 14:06:33;;;;;;;24.95;18.67;;;18.80;65.00;;;;;;5106583;28;20028;-44
2021/12/25 14:08:59;;;;;;;24.25;15.52;;;18.90;65.60;;;;;;5108418;28;20524;-44
2021/12/25 14:11:28;;;;;;;22.25;16.50;;;18.80;65.40;;;;;;5099715;28;20027;-44
2021/12/25 14:13:54;;;;;;;24.25;15.60;;;18.80;65.70;;;;;;5108021;28;20389;-44
2021/12/25 14:16:21;;;;;;;23.63;16.00;;;18.80;65.90;;;;;;5099008;28;20396;-44
2021/12/25 14:18:47;;;;;;;23.88;14.77;;;18.80;65.90;;;;;;5108806;28;20092;-44
2021/12/25 14:21:22;;;;;;;21.00;15.52;;;18.90;65.70;;;;;;5098250;28;20021;-44
2021/12/25 14:24:13;;;;;;;26.73;15.38;;;18.90;65.10;;;;;;5109909;28;20027;-44